Time;durP1;ratioP1;P1;durP2;ratioP2;P2;SDS_P1;SDS_P2;PMS_P1;PMS_P2;Temp;Humidity;BMP_temperature;BMP_pressure;BME280_temperature;BME280_humidity;BME280_pressure;Samples;Min_cycle;Max_cycle;Signal;HPM_P1;HPM_P2
2021/03/18 00:01:48;;;;;;;14.10;3.00;;;3.40;90.00;;;;;;5073251;28;20097;-77
2021/03/18 00:04:16;;;;;;;11.98;2.83;;;3.40;89.90;;;;;;5072896;28;20017;-76
2021/03/18 00:06:43;;;;;;;15.27;3.20;;;3.40;89.70;;;;;;5073123;28;20028;-76
2021/03/18 00:09:10;;;;;;;5.18;2.28;;;3.40;89.80;;;;;;5072662;28;20040;-76
2021/03/18 00:11:41;;;;;;;8.45;2.25;;;3.40;89.80;;;;;;5055103;28;20026;-76
2021/03/18 00:14:12;;;;;;;12.90;3.00;;;3.40;89.90;;;;;;5072345;28;20495;-76
2021/03/18 00:16:39;;;;;;;11.18;2.30;;;3.40;89.70;;;;;;5055115;28;20119;-77
2021/03/18 00:19:05;;;;;;;11.05;3.63;;;3.30;89.60;;;;;;5054704;28;20013;-77
2021/03/18 00:21:30;;;;;;;10.23;2.78;;;3.30;89.50;;;;;;5072522;28;20020;-77
2021/03/18 00:23:56;;;;;;;15.45;3.17;;;3.30;89.30;;;;;;5054610;28;20017;-77
2021/03/18 00:26:24;;;;;;;14.90;3.13;;;3.30;89.80;;;;;;5054301;28;20025;-77
2021/03/18 00:28:51;;;;;;;12.15;3.40;;;3.20;89.20;;;;;;5054762;28;20032;-77
2021/03/18 00:31:20;;;;;;;9.25;2.70;;;3.20;88.90;;;;;;5054464;28;20024;-76
2021/03/18 00:33:46;;;;;;;11.70;2.92;;;3.20;89.00;;;;;;5054699;28;20503;-78
2021/03/18 00:36:11;;;;;;;8.85;2.55;;;3.20;89.10;;;;;;5072288;28;20020;-76
2021/03/18 00:38:37;;;;;;;10.75;3.20;;;3.10;89.00;;;;;;5072833;28;20086;-77
2021/03/18 00:41:05;;;;;;;12.57;3.90;;;3.10;89.20;;;;;;5054522;28;20020;-77
2021/03/18 00:43:31;;;;;;;12.80;2.75;;;3.10;89.40;;;;;;5054551;28;20023;-76
2021/03/18 00:45:57;;;;;;;11.23;2.53;;;3.10;89.50;;;;;;5072550;28;20017;-76
2021/03/18 00:48:23;;;;;;;13.80;3.08;;;3.00;89.90;;;;;;5054075;28;20115;-77
2021/03/18 00:50:55;;;;;;;16.27;4.68;;;3.10;90.20;;;;;;5054270;28;20017;-76
2021/03/18 00:53:36;;;;;;;10.93;3.17;;;3.10;90.50;;;;;;5054042;28;20409;-76
2021/03/18 00:56:04;;;;;;;13.65;3.53;;;3.10;90.20;;;;;;5058794;28;20016;-76
2021/03/18 00:58:29;;;;;;;11.38;3.22;;;3.10;90.30;;;;;;5092093;28;20055;-77
2021/03/18 01:00:58;;;;;;;10.05;2.80;;;3.10;90.40;;;;;;5074326;28;20048;-77
2021/03/18 01:03:28;;;;;;;13.02;3.67;;;3.10;90.30;;;;;;5092209;28;20031;-75
2021/03/18 01:06:05;;;;;;;13.07;3.55;;;3.10;90.40;;;;;;5074335;28;20027;-76
2021/03/18 01:08:33;;;;;;;13.05;2.95;;;3.10;90.40;;;;;;5092306;28;20095;-76
2021/03/18 01:11:00;;;;;;;11.48;3.90;;;3.20;90.40;;;;;;5074396;28;20016;-75
2021/03/18 01:13:26;;;;;;;12.05;3.10;;;3.10;90.30;;;;;;5092411;28;20123;-75
2021/03/18 01:16:03;;;;;;;10.55;3.65;;;3.10;90.40;;;;;;5092408;28;20027;-77
2021/03/18 01:18:41;;;;;;;10.73;3.25;;;3.20;90.40;;;;;;5074278;28;20475;-76
2021/03/18 01:21:07;;;;;;;12.10;3.05;;;3.20;90.40;;;;;;5072758;28;20024;-76
2021/03/18 01:23:33;;;;;;;10.00;3.70;;;3.10;90.70;;;;;;5092439;28;20027;-76
2021/03/18 01:25:59;;;;;;;15.68;4.18;;;3.10;90.50;;;;;;5096339;28;20024;-77
2021/03/18 01:28:26;;;;;;;8.38;3.58;;;3.10;90.50;;;;;;5077975;28;20024;-77
2021/03/18 01:30:53;;;;;;;13.90;4.72;;;3.10;90.40;;;;;;5078233;28;20020;-76
2021/03/18 01:33:19;;;;;;;8.63;3.28;;;3.10;90.50;;;;;;5077937;28;20020;-76
2021/03/18 01:35:45;;;;;;;18.83;3.80;;;3.10;90.50;;;;;;5078118;28;20377;-76
2021/03/18 01:38:11;;;;;;;10.75;2.92;;;3.10;90.50;;;;;;5077556;28;20028;-77
2021/03/18 01:40:39;;;;;;;19.15;4.22;;;3.00;90.30;;;;;;5078038;28;20013;-77
2021/03/18 01:43:04;;;;;;;13.48;3.63;;;3.10;90.40;;;;;;5077748;28;20026;-76
2021/03/18 01:45:30;;;;;;;13.52;3.80;;;3.00;90.30;;;;;;5096375;28;20020;-77
2021/03/18 01:47:56;;;;;;;10.70;3.40;;;3.00;90.30;;;;;;5096004;28;20115;-77
2021/03/18 01:50:25;;;;;;;7.97;3.80;;;3.00;90.30;;;;;;5077451;28;20386;-77
2021/03/18 01:52:52;;;;;;;10.75;3.70;;;3.00;90.30;;;;;;5095948;28;20031;-76
2021/03/18 01:55:40;;;;;;;18.88;3.97;;;2.90;90.20;;;;;;5078412;28;20016;-76
2021/03/18 01:58:06;;;;;;;9.13;3.40;;;2.90;90.30;;;;;;5077700;28;20330;-76
2021/03/18 02:00:35;;;;;;;11.00;3.75;;;2.90;90.20;;;;;;5096661;28;20129;-76
2021/03/18 02:03:02;;;;;;;8.65;3.35;;;2.90;90.20;;;;;;5096530;28;20452;-76
2021/03/18 02:05:29;;;;;;;14.35;4.00;;;2.80;90.20;;;;;;5096331;28;20046;-75
2021/03/18 02:07:56;;;;;;;9.15;3.88;;;2.80;90.30;;;;;;5096005;28;20040;-75
2021/03/18 02:10:32;;;;;;;15.95;4.57;;;2.80;90.30;;;;;;5077240;28;20016;-75
2021/03/18 02:12:58;;;;;;;13.50;4.35;;;2.80;90.40;;;;;;5095555;28;20020;-76
2021/03/18 02:15:27;;;;;;;23.35;5.35;;;2.80;90.40;;;;;;5077139;28;20098;-76
2021/03/18 02:18:15;;;;;;;13.70;4.20;;;2.80;90.50;;;;;;5077433;28;20069;-76
2021/03/18 02:20:59;;;;;;;10.05;4.88;;;2.80;90.50;;;;;;5077293;28;20020;-77
2021/03/18 02:23:39;;;;;;;16.70;3.95;;;2.80;90.50;;;;;;5095109;28;20016;-76
2021/03/18 02:26:09;;;;;;;;;;;2.80;90.60;;;;;;5077461;28;20452;-76
2021/03/18 02:29:06;;;;;;;17.57;4.20;;;2.80;90.70;;;;;;5076995;28;19942;-77
2021/03/18 02:31:49;;;;;;;13.52;5.45;;;2.80;90.70;;;;;;5077157;28;20263;-76
2021/03/18 02:34:53;;;;;;;14.93;4.78;;;2.80;90.80;;;;;;5076661;28;20116;-75
2021/03/18 02:37:26;;;;;;;16.80;5.68;;;2.80;90.80;;;;;;5075951;28;20383;-76
2021/03/18 02:40:03;;;;;;;13.15;4.32;;;2.80;90.90;;;;;;5076437;28;20027;-75
2021/03/18 02:42:36;;;;;;;15.10;3.92;;;2.90;90.90;;;;;;5076501;28;20059;-76
2021/03/18 02:45:06;;;;;;;11.00;5.00;;;2.90;90.80;;;;;;5076782;28;20338;-76
2021/03/18 02:47:34;;;;;;;13.88;4.30;;;2.90;90.80;;;;;;5094640;28;20023;-76
2021/03/18 02:50:01;;;;;;;11.85;4.20;;;2.90;90.80;;;;;;5094749;28;20380;-76
2021/03/18 02:52:29;;;;;;;16.77;4.40;;;2.90;90.80;;;;;;5076493;28;20016;-76
2021/03/18 02:54:57;;;;;;;19.35;5.30;;;2.90;90.70;;;;;;5076716;28;20016;-76
2021/03/18 02:57:25;;;;;;;16.02;4.40;;;2.90;90.70;;;;;;5094394;28;20012;-76
2021/03/18 02:59:53;;;;;;;18.55;6.45;;;2.90;90.70;;;;;;5094877;28;20081;-75
2021/03/18 03:02:22;;;;;;;23.65;7.32;;;2.90;90.60;;;;;;5094522;28;20024;-75
2021/03/18 03:04:51;;;;;;;19.88;6.50;;;2.90;90.50;;;;;;5076480;28;20024;-75
2021/03/18 03:07:18;;;;;;;13.48;5.50;;;3.00;90.60;;;;;;5075823;28;20012;-76
2021/03/18 03:09:45;;;;;;;14.25;5.50;;;3.00;90.60;;;;;;5094737;28;20107;-76
2021/03/18 03:12:13;;;;;;;17.55;5.47;;;3.00;90.60;;;;;;5076132;28;20027;-76
2021/03/18 03:14:40;;;;;;;15.23;5.38;;;3.00;90.60;;;;;;5076255;28;20021;-75
2021/03/18 03:17:07;;;;;;;27.40;8.48;;;3.00;90.60;;;;;;5076257;28;20427;-75
2021/03/18 03:19:37;;;;;;;50.38;17.33;;;3.10;90.60;;;;;;5075874;28;20115;-76
2021/03/18 03:22:05;;;;;;;101.38;32.03;;;3.10;90.60;;;;;;5076046;28;20016;-75
2021/03/18 03:24:34;;;;;;;61.45;21.50;;;3.10;90.50;;;;;;5093895;28;20012;-75
2021/03/18 03:27:00;;;;;;;34.07;13.30;;;3.10;90.40;;;;;;5076155;28;20360;-75
2021/03/18 03:29:26;;;;;;;26.20;10.40;;;3.10;90.30;;;;;;5075762;28;20290;-76
2021/03/18 03:31:52;;;;;;;16.95;6.35;;;3.00;90.30;;;;;;5075933;28;20020;-76
2021/03/18 03:34:18;;;;;;;16.30;4.75;;;3.00;90.30;;;;;;5075644;28;20467;-75
2021/03/18 03:36:46;;;;;;;14.05;5.07;;;3.00;90.20;;;;;;5075799;28;20115;-76
2021/03/18 03:39:12;;;;;;;11.93;4.50;;;3.00;90.20;;;;;;5075553;28;20031;-75
2021/03/18 03:41:38;;;;;;;15.85;5.03;;;2.90;90.20;;;;;;5075688;28;20111;-76
2021/03/18 03:44:05;;;;;;;18.95;4.97;;;2.90;90.20;;;;;;5093598;28;20167;-76
2021/03/18 03:46:32;;;;;;;15.55;5.07;;;2.90;90.20;;;;;;5075324;28;20360;-77
2021/03/18 03:48:58;;;;;;;21.02;5.18;;;2.90;90.20;;;;;;5074650;28;20055;-77
2021/03/18 03:51:32;;;;;;;17.55;5.50;;;2.90;90.20;;;;;;5093503;28;20028;-76
2021/03/18 03:54:02;;;;;;;14.07;5.45;;;2.90;90.30;;;;;;5075281;28;20020;-76
2021/03/18 03:56:43;;;;;;;14.00;4.70;;;2.90;90.30;;;;;;5092950;28;20038;-75
2021/03/18 03:59:20;;;;;;;12.70;5.85;;;2.90;90.30;;;;;;5075282;28;20024;-76
2021/03/18 04:01:50;;;;;;;16.08;5.20;;;2.90;90.30;;;;;;5075338;28;20104;-76
2021/03/18 04:04:22;;;;;;;19.52;5.30;;;2.90;90.40;;;;;;5075031;28;20507;-76
2021/03/18 04:06:52;;;;;;;17.25;5.88;;;3.00;90.40;;;;;;5075243;28;20055;-76
2021/03/18 04:09:19;;;;;;;20.23;5.37;;;3.00;90.40;;;;;;5074555;28;20046;-74
2021/03/18 04:11:47;;;;;;;15.48;5.28;;;3.00;90.30;;;;;;5093279;28;20024;-76
2021/03/18 04:14:14;;;;;;;16.60;6.10;;;3.00;90.30;;;;;;5074800;28;20429;-76
2021/03/18 04:16:42;;;;;;;12.73;4.60;;;2.90;90.30;;;;;;5075030;28;20026;-75
2021/03/18 04:19:13;;;;;;;15.85;4.82;;;2.90;90.20;;;;;;5093263;28;20553;-75
2021/03/18 04:21:40;;;;;;;16.92;4.95;;;2.90;90.30;;;;;;5093264;28;20020;-75
2021/03/18 04:24:07;;;;;;;11.95;4.40;;;2.80;90.50;;;;;;5074868;28;20026;-75
2021/03/18 04:26:38;;;;;;;14.00;4.93;;;2.80;90.20;;;;;;5092767;28;20043;-75
2021/03/18 04:29:04;;;;;;;11.75;4.75;;;2.80;90.20;;;;;;5074764;28;20028;-75
2021/03/18 04:31:32;;;;;;;11.15;4.35;;;2.80;90.50;;;;;;5092734;28;20499;-75
2021/03/18 04:33:58;;;;;;;9.80;3.97;;;2.80;90.30;;;;;;5074699;28;20039;-75
2021/03/18 04:36:24;;;;;;;13.20;4.38;;;2.70;90.30;;;;;;5092638;28;20020;-75
2021/03/18 04:38:51;;;;;;;13.38;4.85;;;2.70;90.30;;;;;;5074380;28;20115;-76
2021/03/18 04:41:17;;;;;;;13.85;4.82;;;2.70;90.30;;;;;;5074402;28;20020;-75
2021/03/18 04:43:44;;;;;;;12.98;4.45;;;2.70;90.60;;;;;;5074764;28;20012;-76
2021/03/18 04:46:10;;;;;;;9.57;4.30;;;2.70;90.30;;;;;;5092871;28;20051;-76
2021/03/18 04:48:38;;;;;;;13.60;4.65;;;2.70;90.30;;;;;;5074368;28;20052;-76
2021/03/18 04:51:08;;;;;;;14.73;5.00;;;2.70;90.60;;;;;;5074688;28;20078;-76
2021/03/18 04:53:35;;;;;;;11.38;4.70;;;2.70;90.40;;;;;;5074242;28;20016;-76
2021/03/18 04:56:02;;;;;;;9.88;4.13;;;2.70;90.30;;;;;;5074405;28;20012;-76
2021/03/18 04:58:29;;;;;;;14.60;5.53;;;2.70;90.30;;;;;;5073804;28;20038;-76
2021/03/18 05:00:56;;;;;;;13.38;4.40;;;2.70;90.40;;;;;;5092533;28;20398;-76
2021/03/18 05:03:22;;;;;;;11.50;3.95;;;2.80;90.40;;;;;;5092225;28;20024;-76
2021/03/18 05:05:50;;;;;;;15.40;5.15;;;2.80;90.40;;;;;;5092433;28;20441;-76
2021/03/18 05:08:17;;;;;;;11.38;4.57;;;2.80;90.50;;;;;;5073861;28;20040;-76
2021/03/18 05:10:45;;;;;;;11.13;4.60;;;2.90;90.50;;;;;;5074300;28;20131;-76
2021/03/18 05:13:12;;;;;;;9.05;4.10;;;2.90;90.50;;;;;;5073433;28;20103;-76
2021/03/18 05:15:39;;;;;;;14.80;4.80;;;2.90;90.50;;;;;;5090742;28;20641;-76
2021/03/18 05:18:08;;;;;;;12.70;4.85;;;3.00;90.50;;;;;;5074521;28;20040;-76
2021/03/18 05:20:34;;;;;;;16.38;4.93;;;3.00;90.50;;;;;;5074098;28;20065;-76
2021/03/18 05:23:00;;;;;;;17.33;5.63;;;3.10;90.50;;;;;;5074172;28;20016;-76
2021/03/18 05:25:29;;;;;;;14.07;5.00;;;3.10;90.50;;;;;;5073958;28;20089;-76
2021/03/18 05:27:55;;;;;;;14.57;6.70;;;3.10;90.50;;;;;;5073947;28;20360;-76
2021/03/18 05:30:21;;;;;;;13.45;4.97;;;3.20;90.50;;;;;;5074013;28;20012;-75
2021/03/18 05:32:47;;;;;;;12.88;5.15;;;3.20;90.40;;;;;;5074001;28;20103;-76
2021/03/18 05:35:13;;;;;;;11.70;5.07;;;3.10;90.30;;;;;;5074074;28;20453;-76
2021/03/18 05:37:40;;;;;;;15.05;5.25;;;3.20;90.30;;;;;;5073795;28;20122;-76
2021/03/18 05:40:09;;;;;;;19.20;5.43;;;3.10;90.20;;;;;;5092022;28;20026;-76
2021/03/18 05:42:35;;;;;;;13.48;4.95;;;3.10;90.20;;;;;;5073429;28;20023;-76
2021/03/18 05:45:03;;;;;;;14.40;4.78;;;3.20;90.30;;;;;;5073954;28;20016;-74
2021/03/18 05:47:31;;;;;;;16.98;6.07;;;3.20;90.30;;;;;;5092008;28;20448;-76
2021/03/18 05:49:58;;;;;;;13.63;4.65;;;3.20;90.40;;;;;;5073734;28;20030;-76
2021/03/18 05:52:26;;;;;;;17.73;5.75;;;3.20;90.40;;;;;;5091804;28;20520;-76
2021/03/18 05:54:53;;;;;;;19.55;5.53;;;3.20;90.40;;;;;;5073618;28;20031;-76
2021/03/18 05:57:19;;;;;;;14.05;5.70;;;3.20;90.40;;;;;;5091519;28;20016;-76
2021/03/18 05:59:46;;;;;;;9.90;5.18;;;3.20;90.40;;;;;;5089889;28;20104;-76
2021/03/18 06:02:13;;;;;;;16.13;6.15;;;3.20;90.40;;;;;;5073639;28;20452;-76
2021/03/18 06:04:39;;;;;;;12.02;5.47;;;3.30;90.40;;;;;;5091636;28;20024;-75
2021/03/18 06:07:06;;;;;;;11.20;5.32;;;3.30;90.40;;;;;;5073597;28;20020;-75
2021/03/18 06:09:33;;;;;;;14.55;5.95;;;3.30;90.40;;;;;;5073375;28;20032;-75
2021/03/18 06:11:59;;;;;;;13.02;5.40;;;3.20;90.30;;;;;;5075813;28;20047;-75
2021/03/18 06:14:25;;;;;;;17.10;6.25;;;3.30;90.40;;;;;;5077283;28;20044;-75
2021/03/18 06:16:53;;;;;;;14.15;5.32;;;3.20;90.40;;;;;;5095255;28;20062;-75
2021/03/18 06:19:19;;;;;;;15.55;6.05;;;3.20;90.50;;;;;;5077407;28;20016;-78
2021/03/18 06:21:46;;;;;;;18.55;7.10;;;3.30;90.50;;;;;;5077414;28;20020;-78
2021/03/18 06:24:14;;;;;;;16.52;7.38;;;3.30;90.90;;;;;;5077376;28;20414;-79
2021/03/18 06:26:40;;;;;;;15.18;6.63;;;3.30;91.10;;;;;;5095162;28;20099;-78
2021/03/18 06:29:26;;;;;;;16.13;7.03;;;3.40;91.30;;;;;;5077075;28;20119;-78
2021/03/18 06:31:51;;;;;;;17.85;6.97;;;3.40;91.40;;;;;;5095107;28;20436;-78
2021/03/18 06:34:38;;;;;;;14.45;6.28;;;3.50;91.20;;;;;;5076928;28;20013;-78
2021/03/18 06:37:27;;;;;;;22.10;7.55;;;3.50;91.10;;;;;;5076779;28;20020;-78
2021/03/18 06:39:53;;;;;;;13.57;6.45;;;3.50;91.00;;;;;;5076535;28;20107;-78
2021/03/18 06:42:18;;;;;;;12.70;5.68;;;3.60;90.90;;;;;;5076986;28;20142;-80
2021/03/18 06:44:44;;;;;;;16.40;5.85;;;3.60;90.90;;;;;;5076747;28;20412;-79
2021/03/18 06:47:11;;;;;;;15.35;6.22;;;3.60;90.70;;;;;;5076787;28;20016;-79
2021/03/18 06:49:37;;;;;;;19.48;6.88;;;3.60;90.60;;;;;;5076374;28;20028;-79
2021/03/18 06:52:06;;;;;;;18.20;6.05;;;3.60;90.50;;;;;;5076287;28;20073;-79
2021/03/18 06:54:42;;;;;;;12.75;5.68;;;3.70;90.50;;;;;;5094646;28;20012;-80
2021/03/18 06:57:08;;;;;;;20.40;7.43;;;3.70;90.60;;;;;;5076640;28;20234;-79
2021/03/18 06:59:39;;;;;;;14.27;6.55;;;3.70;90.50;;;;;;5076112;28;20597;-78
2021/03/18 07:02:17;;;;;;;18.50;6.45;;;3.80;90.50;;;;;;5094259;28;20016;-80
2021/03/18 07:04:43;;;;;;;14.82;6.00;;;3.90;90.40;;;;;;5076347;28;20099;-80
2021/03/18 07:07:10;;;;;;;17.30;6.25;;;3.90;90.30;;;;;;5076272;28;20024;-81
2021/03/18 07:09:38;;;;;;;14.35;6.68;;;4.00;90.20;;;;;;5094213;28;20028;-80
2021/03/18 07:12:06;;;;;;;18.48;6.68;;;4.00;90.20;;;;;;5094626;28;20055;-80
2021/03/18 07:14:38;;;;;;;23.58;6.97;;;4.20;90.10;;;;;;5076179;28;20070;-80
2021/03/18 07:17:05;;;;;;;13.40;6.65;;;4.20;89.90;;;;;;5076193;28;20047;-80
2021/03/18 07:19:31;;;;;;;12.15;5.82;;;4.20;90.10;;;;;;5075927;28;20040;-80
2021/03/18 07:21:57;;;;;;;14.98;6.30;;;4.30;89.90;;;;;;5075854;28;20051;-80
2021/03/18 07:24:38;;;;;;;13.05;5.60;;;4.30;89.70;;;;;;5076257;28;20024;-81
2021/03/18 07:27:16;;;;;;;21.70;7.15;;;4.40;89.90;;;;;;5076430;28;20066;-81
2021/03/18 07:29:45;;;;;;;15.40;6.55;;;4.40;90.00;;;;;;5077269;28;20028;-81
2021/03/18 07:32:11;;;;;;;20.13;6.30;;;4.50;90.20;;;;;;5075867;28;20016;-78
2021/03/18 07:34:38;;;;;;;14.65;5.85;;;4.50;90.00;;;;;;5074331;28;20012;-79
2021/03/18 07:37:07;;;;;;;16.83;6.60;;;4.60;90.30;;;;;;5075758;28;20024;-78
2021/03/18 07:39:34;;;;;;;17.80;7.03;;;4.70;90.20;;;;;;5093705;28;20024;-79
2021/03/18 07:42:01;;;;;;;19.58;6.80;;;4.80;90.20;;;;;;5075846;28;20020;-79
2021/03/18 07:44:27;;;;;;;18.60;7.72;;;4.90;90.20;;;;;;5075496;28;20011;-79
2021/03/18 07:46:54;;;;;;;18.90;7.28;;;4.90;90.40;;;;;;5075774;28;20012;-78
2021/03/18 07:49:57;;;;;;;26.38;8.02;;;5.00;90.40;;;;;;5093587;28;20024;-78
2021/03/18 07:52:26;;;;;;;21.80;6.95;;;5.00;90.50;;;;;;4975422;28;20027;-79
2021/03/18 07:54:55;;;;;;;17.95;6.82;;;5.10;90.40;;;;;;5076099;28;20028;-79
2021/03/18 07:57:20;;;;;;;24.73;7.40;;;5.10;90.50;;;;;;5093430;28;20405;-79
2021/03/18 07:59:46;;;;;;;17.90;6.80;;;5.20;90.60;;;;;;5074782;28;20105;-78
2021/03/18 08:02:17;;;;;;;13.80;5.38;;;5.30;90.60;;;;;;5068957;28;20103;-78
2021/03/18 08:04:45;;;;;;;15.80;6.97;;;5.40;90.80;;;;;;5073800;28;20107;-79
2021/03/18 08:07:11;;;;;;;16.85;5.25;;;5.50;90.70;;;;;;5074868;28;20072;-78
2021/03/18 08:09:37;;;;;;;22.02;6.25;;;5.60;90.70;;;;;;5092979;28;20158;-77
2021/03/18 08:12:03;;;;;;;22.55;7.32;;;5.60;90.10;;;;;;5074323;28;20048;-78
2021/03/18 08:14:48;;;;;;;22.17;7.07;;;5.70;90.00;;;;;;5092674;28;20023;-78
2021/03/18 08:17:27;;;;;;;21.42;8.38;;;5.70;90.00;;;;;;5066893;28;20025;-80
2021/03/18 08:19:53;;;;;;;17.90;7.05;;;5.60;89.50;;;;;;5091069;28;20423;-81
2021/03/18 08:22:29;;;;;;;25.77;7.68;;;5.70;89.90;;;;;;5072173;28;20150;-77
2021/03/18 08:25:22;;;;;;;19.23;7.95;;;5.70;90.10;;;;;;5071305;28;20111;-76
2021/03/18 08:27:48;;;;;;;18.42;6.75;;;5.70;89.70;;;;;;5088112;28;20023;-77
2021/03/18 08:30:25;;;;;;;22.15;7.50;;;5.70;90.20;;;;;;5083417;28;20928;-77
2021/03/18 08:32:51;;;;;;;19.48;7.70;;;5.60;90.00;;;;;;5093695;28;20056;-77
2021/03/18 08:35:28;;;;;;;24.05;7.05;;;5.70;90.20;;;;;;5072686;28;20519;-78
2021/03/18 08:37:55;;;;;;;20.90;6.80;;;5.70;90.40;;;;;;5073722;28;20016;-76
2021/03/18 08:40:21;;;;;;;25.65;7.82;;;5.70;90.40;;;;;;5091869;28;20028;-76
2021/03/18 08:42:51;;;;;;;26.48;7.93;;;5.80;90.60;;;;;;5071906;28;20056;-76
2021/03/18 08:45:20;;;;;;;26.92;8.63;;;5.80;90.50;;;;;;5092319;28;20053;-76
2021/03/18 08:47:45;;;;;;;28.27;9.57;;;5.90;90.50;;;;;;5091887;28;20016;-75
2021/03/18 08:50:34;;;;;;;25.85;9.40;;;6.00;90.70;;;;;;5089845;28;20043;-75
2021/03/18 08:53:02;;;;;;;25.77;7.97;;;6.10;90.30;;;;;;5075949;28;20273;-75
2021/03/18 08:55:34;;;;;;;19.85;8.50;;;6.20;90.20;;;;;;5074073;28;20482;-75
2021/03/18 08:58:03;;;;;;;24.55;8.45;;;6.20;90.40;;;;;;5074404;28;20095;-74
2021/03/18 09:00:28;;;;;;;31.60;8.32;;;6.30;90.20;;;;;;5085294;28;20475;-76
2021/03/18 09:02:54;;;;;;;25.27;8.80;;;6.40;89.80;;;;;;5072687;28;20019;-76
2021/03/18 09:05:21;;;;;;;29.10;10.88;;;6.50;89.30;;;;;;5059999;28;20103;-76
2021/03/18 09:07:51;;;;;;;29.75;9.18;;;6.50;89.30;;;;;;5052896;28;20040;-76
2021/03/18 09:10:24;;;;;;;22.33;7.70;;;6.60;88.50;;;;;;5085485;28;20111;-76
2021/03/18 09:12:53;;;;;;;21.98;8.32;;;6.60;88.50;;;;;;5073386;28;20021;-76
2021/03/18 09:15:27;;;;;;;27.08;8.13;;;6.70;89.10;;;;;;5091747;28;20039;-76
2021/03/18 09:18:01;;;;;;;26.52;7.88;;;6.70;88.70;;;;;;5073316;28;20111;-76
2021/03/18 09:20:33;;;;;;;41.75;11.25;;;6.80;90.00;;;;;;5091470;28;20013;-78
2021/03/18 09:23:14;;;;;;;36.03;11.82;;;6.80;89.30;;;;;;5073433;28;20020;-76
2021/03/18 09:25:41;;;;;;;22.30;7.20;;;6.90;88.80;;;;;;5091081;28;20020;-74
2021/03/18 09:28:08;;;;;;;28.48;8.52;;;7.00;87.90;;;;;;5072762;28;20027;-76
2021/03/18 09:30:46;;;;;;;34.10;9.18;;;7.10;88.10;;;;;;5073132;28;20016;-74
2021/03/18 09:33:26;;;;;;;73.90;21.65;;;7.10;87.50;;;;;;5057892;28;20016;-75
2021/03/18 09:35:54;;;;;;;43.00;14.48;;;7.20;87.30;;;;;;5072738;28;20021;-75
2021/03/18 09:38:30;;;;;;;49.45;14.00;;;7.30;86.70;;;;;;5087032;28;20020;-75
2021/03/18 09:40:59;;;;;;;116.05;34.00;;;7.40;87.80;;;;;;5073662;28;20016;-75
2021/03/18 09:43:26;;;;;;;34.03;10.10;;;7.60;87.90;;;;;;5091272;28;20369;-74
2021/03/18 09:45:54;;;;;;;21.98;6.47;;;7.70;85.90;;;;;;5074634;28;20008;-74
2021/03/18 09:48:40;;;;;;;39.85;14.13;;;7.70;84.80;;;;;;5076918;28;20111;-74
2021/03/18 09:51:13;;;;;;;36.30;10.35;;;7.70;85.60;;;;;;5077380;28;20023;-76
2021/03/18 09:53:41;;;;;;;39.17;7.80;;;7.80;86.60;;;;;;5061226;28;20023;-76
2021/03/18 09:56:09;;;;;;;25.30;6.32;;;7.80;84.10;;;;;;5077307;28;20478;-76
2021/03/18 09:58:37;;;;;;;30.10;7.13;;;7.80;89.60;;;;;;5095357;28;20479;-76
2021/03/18 10:01:10;;;;;;;39.00;11.70;;;7.90;87.70;;;;;;5095532;28;20061;-76
2021/03/18 10:03:35;;;;;;;26.05;9.18;;;8.00;86.40;;;;;;5060684;28;20012;-75
2021/03/18 10:06:11;;;;;;;40.92;8.48;;;8.10;85.50;;;;;;5066368;28;20463;-75
2021/03/18 10:08:37;;;;;;;31.63;8.55;;;8.20;85.60;;;;;;5076263;28;20072;-75
2021/03/18 10:11:14;;;;;;;37.28;9.32;;;8.20;85.30;;;;;;5095048;28;20059;-75
2021/03/18 10:13:40;;;;;;;34.65;7.22;;;8.30;84.40;;;;;;5056837;28;20103;-75
2021/03/18 10:16:07;;;;;;;30.23;9.00;;;8.30;83.40;;;;;;5064991;28;20073;-78
2021/03/18 10:18:34;;;;;;;42.88;10.80;;;8.30;83.40;;;;;;5076630;28;20020;-75
2021/03/18 10:21:04;;;;;;;39.45;8.77;;;8.40;83.40;;;;;;5095184;28;20042;-76
2021/03/18 10:23:30;;;;;;;16.58;5.22;;;8.40;83.90;;;;;;5076689;28;20008;-76
2021/03/18 10:25:56;;;;;;;25.17;7.15;;;8.50;88.50;;;;;;5094647;28;20074;-76
2021/03/18 10:28:24;;;;;;;27.27;7.85;;;8.70;85.60;;;;;;5076596;28;20368;-76
2021/03/18 10:30:50;;;;;;;27.13;6.65;;;8.80;83.50;;;;;;5076515;28;20476;-75
2021/03/18 10:33:26;;;;;;;30.70;7.57;;;8.90;80.20;;;;;;5076637;28;20143;-76
2021/03/18 10:35:52;;;;;;;28.23;7.28;;;9.10;80.20;;;;;;5076436;28;20031;-76
2021/03/18 10:38:28;;;;;;;34.17;7.55;;;9.30;81.40;;;;;;5094731;28;20024;-78
2021/03/18 10:40:55;;;;;;;20.13;5.72;;;9.60;83.80;;;;;;5094343;28;20391;-77
2021/03/18 10:43:30;;;;;;;20.20;6.28;;;9.90;81.10;;;;;;5076503;28;20023;-76
2021/03/18 10:46:02;;;;;;;23.13;6.20;;;10.30;78.30;;;;;;5094577;28;20122;-76
2021/03/18 10:48:32;;;;;;;23.33;6.50;;;10.40;73.10;;;;;;5094490;28;20020;-77
2021/03/18 10:51:18;;;;;;;22.83;5.00;;;10.50;73.80;;;;;;5094567;28;20028;-77
2021/03/18 10:53:45;;;;;;;33.80;8.00;;;10.60;82.50;;;;;;5078590;28;20023;-78
2021/03/18 10:56:17;;;;;;;24.25;5.80;;;10.50;72.20;;;;;;5076330;28;20016;-78
2021/03/18 10:58:44;;;;;;;26.15;7.80;;;10.50;77.50;;;;;;5075307;28;20027;-77
2021/03/18 11:01:12;;;;;;;27.08;6.28;;;10.50;76.40;;;;;;5076143;28;20016;-75
2021/03/18 11:03:42;;;;;;;26.55;7.40;;;10.50;74.20;;;;;;5075816;28;20467;-75
2021/03/18 11:06:16;;;;;;;27.33;6.93;;;10.60;73.10;;;;;;5064930;28;20106;-75
2021/03/18 11:08:47;;;;;;;17.38;5.85;;;10.70;72.70;;;;;;5093582;28;20036;-76
2021/03/18 11:11:21;;;;;;;25.38;7.57;;;10.70;71.30;;;;;;5094530;28;20020;-77
2021/03/18 11:13:48;;;;;;;28.58;7.30;;;10.70;70.50;;;;;;5075811;28;20471;-76
2021/03/18 11:16:21;;;;;;;28.42;8.68;;;11.00;71.30;;;;;;5094058;28;20062;-76
2021/03/18 11:18:47;;;;;;;34.92;11.18;;;11.30;68.70;;;;;;5075906;28;20368;-76
2021/03/18 11:21:25;;;;;;;24.27;7.43;;;11.30;69.00;;;;;;5076114;28;20027;-76
2021/03/18 11:24:03;;;;;;;35.13;8.32;;;11.40;66.30;;;;;;5075697;28;20016;-76
2021/03/18 11:26:29;;;;;;;27.30;7.10;;;11.30;67.20;;;;;;5075822;28;20119;-77
2021/03/18 11:28:57;;;;;;;22.67;4.72;;;11.20;68.60;;;;;;5093877;28;20111;-76
2021/03/18 11:31:27;;;;;;;25.65;6.25;;;11.10;77.30;;;;;;5075799;28;20360;-76
2021/03/18 11:33:53;;;;;;;24.70;8.68;;;11.10;76.10;;;;;;5093634;28;20069;-76
2021/03/18 11:36:19;;;;;;;22.63;7.20;;;10.80;66.70;;;;;;5075916;28;20023;-77
2021/03/18 11:38:46;;;;;;;35.28;7.45;;;10.60;68.10;;;;;;5076036;28;20101;-77
2021/03/18 11:41:11;;;;;;;26.23;6.30;;;10.40;67.50;;;;;;5075761;28;20135;-77
2021/03/18 11:43:38;;;;;;;19.95;5.60;;;10.20;67.80;;;;;;5058724;28;20110;-77
2021/03/18 11:46:04;;;;;;;14.80;5.82;;;10.10;68.50;;;;;;5075523;28;20471;-77
2021/03/18 11:48:31;;;;;;;23.08;5.68;;;10.00;73.50;;;;;;5075515;28;20524;-77
2021/03/18 11:50:56;;;;;;;19.67;4.57;;;9.90;73.40;;;;;;5075285;28;20463;-77
2021/03/18 11:53:23;;;;;;;15.68;5.72;;;9.80;73.90;;;;;;5075413;28;20017;-78
2021/03/18 11:55:49;;;;;;;17.95;5.82;;;9.80;73.00;;;;;;5093303;28;20024;-77
2021/03/18 11:58:15;;;;;;;21.83;6.22;;;9.80;75.60;;;;;;5093508;28;20020;-77
2021/03/18 12:00:41;;;;;;;22.70;5.47;;;9.80;81.50;;;;;;5075137;28;20499;-77
2021/03/18 12:03:09;;;;;;;28.63;7.25;;;9.90;76.30;;;;;;5075110;28;20466;-77
2021/03/18 12:05:36;;;;;;;19.10;6.40;;;9.90;72.00;;;;;;5078771;28;20025;-77
2021/03/18 12:08:03;;;;;;;19.00;5.85;;;9.80;71.00;;;;;;5088171;28;20097;-77
2021/03/18 12:10:30;;;;;;;91.38;36.63;;;9.80;76.00;;;;;;5074477;28;20024;-77
2021/03/18 12:12:55;;;;;;;23.00;6.05;;;9.80;73.50;;;;;;5093072;28;20483;-77
2021/03/18 12:15:21;;;;;;;21.98;6.03;;;9.80;72.50;;;;;;5074933;28;20020;-77
2021/03/18 12:17:47;;;;;;;53.00;26.02;;;9.80;72.90;;;;;;5074626;28;20157;-77
2021/03/18 12:20:17;;;;;;;23.67;6.28;;;9.90;71.50;;;;;;5074528;28;20016;-77
2021/03/18 12:22:46;;;;;;;25.43;5.17;;;9.90;71.00;;;;;;5092796;28;20031;-77
2021/03/18 12:25:14;;;;;;;25.03;4.90;;;9.90;70.90;;;;;;5074715;28;20302;-77
2021/03/18 12:27:40;;;;;;;15.70;4.00;;;9.90;70.10;;;;;;5074427;28;20266;-76
2021/03/18 12:30:08;;;;;;;19.48;3.80;;;9.90;73.00;;;;;;5074710;28;20062;-76
2021/03/18 12:32:34;;;;;;;18.50;4.10;;;9.80;72.40;;;;;;5074582;28;20024;-75
2021/03/18 12:35:00;;;;;;;25.67;4.15;;;9.90;74.50;;;;;;5074091;28;20026;-77
2021/03/18 12:37:26;;;;;;;15.77;4.07;;;9.90;70.80;;;;;;5074580;28;20107;-77
2021/03/18 12:39:51;;;;;;;23.50;4.75;;;9.90;75.70;;;;;;5092603;28;20057;-77
2021/03/18 12:42:17;;;;;;;21.63;3.85;;;10.00;77.30;;;;;;5074544;28;20521;-77
2021/03/18 12:44:43;;;;;;;16.15;3.58;;;10.10;78.50;;;;;;5074210;28;20478;-77
2021/03/18 12:47:09;;;;;;;9.75;2.65;;;10.10;78.40;;;;;;5074515;28;20375;-76
2021/03/18 12:49:36;;;;;;;12.43;2.75;;;10.20;75.90;;;;;;5074257;28;20019;-76
2021/03/18 12:52:06;;;;;;;10.20;3.03;;;10.20;78.70;;;;;;5074124;28;20364;-77
2021/03/18 12:54:35;;;;;;;29.23;4.93;;;10.30;84.90;;;;;;5074286;28;20038;-74
2021/03/18 12:57:01;;;;;;;15.75;3.53;;;10.40;84.00;;;;;;5074046;28;20081;-74